sensor_id;sensor_type;location;lat;lon;timestamp;temperature;humidity
78992;DHT22;72820;44.838;37.674;2024-01-16T00:00:44;8.99;75.54
78992;DHT22;72820;44.838;37.674;2024-01-16T00:01:45;9.00;75.40
78992;DHT22;72820;44.838;37.674;2024-01-16T00:02:47;9.00;75.46
78992;DHT22;72820;44.838;37.674;2024-01-16T00:03:48;9.01;75.49
78992;DHT22;72820;44.838;37.674;2024-01-16T00:04:49;9.01;75.37
78992;DHT22;72820;44.838;37.674;2024-01-16T00:05:51;9.01;75.37
78992;DHT22;72820;44.838;37.674;2024-01-16T00:06:52;9.03;75.18
78992;DHT22;72820;44.838;37.674;2024-01-16T00:07:54;9.04;75.26
78992;DHT22;72820;44.838;37.674;2024-01-16T00:08:56;9.03;75.08
78992;DHT22;72820;44.838;37.674;2024-01-16T00:09:57;9.05;75.07
78992;DHT22;72820;44.838;37.674;2024-01-16T00:11:01;9.05;74.92
78992;DHT22;72820;44.838;37.674;2024-01-16T00:12:03;9.07;75.05
78992;DHT22;72820;44.838;37.674;2024-01-16T00:13:07;9.08;75.16
78992;DHT22;72820;44.838;37.674;2024-01-16T00:14:09;9.11;74.84
78992;DHT22;72820;44.838;37.674;2024-01-16T00:15:10;9.12;74.66
78992;DHT22;72820;44.838;37.674;2024-01-16T00:16:12;9.11;74.63
78992;DHT22;72820;44.838;37.674;2024-01-16T00:17:13;9.10;74.66
78992;DHT22;72820;44.838;37.674;2024-01-16T00:18:15;9.11;74.80
78992;DHT22;72820;44.838;37.674;2024-01-16T00:19:16;9.14;74.96
78992;DHT22;72820;44.838;37.674;2024-01-16T00:20:17;9.14;74.95
78992;DHT22;72820;44.838;37.674;2024-01-16T00:21:38;9.12;74.92
78992;DHT22;72820;44.838;37.674;2024-01-16T00:22:40;9.10;75.14
78992;DHT22;72820;44.838;37.674;2024-01-16T00:23:41;9.10;75.26
78992;DHT22;72820;44.838;37.674;2024-01-16T00:24:42;9.11;75.18
78992;DHT22;72820;44.838;37.674;2024-01-16T00:25:44;9.12;75.11
78992;DHT22;72820;44.838;37.674;2024-01-16T00:26:45;9.12;75.09
78992;DHT22;72820;44.838;37.674;2024-01-16T00:27:47;9.14;75.12
78992;DHT22;72820;44.838;37.674;2024-01-16T00:28:48;9.12;75.08
78992;DHT22;72820;44.838;37.674;2024-01-16T00:29:50;9.12;75.25
78992;DHT22;72820;44.838;37.674;2024-01-16T00:30:51;9.12;75.21
78992;DHT22;72820;44.838;37.674;2024-01-16T00:31:53;9.11;75.59
78992;DHT22;72820;44.838;37.674;2024-01-16T00:32:54;9.07;75.60
78992;DHT22;72820;44.838;37.674;2024-01-16T00:33:55;9.04;75.74
78992;DHT22;72820;44.838;37.674;2024-01-16T00:34:58;9.04;75.92
78992;DHT22;72820;44.838;37.674;2024-01-16T00:36:00;9.03;76.02
78992;DHT22;72820;44.838;37.674;2024-01-16T00:37:04;9.03;76.00
78992;DHT22;72820;44.838;37.674;2024-01-16T00:38:05;9.00;76.30
78992;DHT22;72820;44.838;37.674;2024-01-16T00:39:07;9.01;76.39
78992;DHT22;72820;44.838;37.674;2024-01-16T00:40:09;9.00;76.54
78992;DHT22;72820;44.838;37.674;2024-01-16T00:41:12;9.00;76.83
78992;DHT22;72820;44.838;37.674;2024-01-16T00:42:15;8.96;77.08
78992;DHT22;72820;44.838;37.674;2024-01-16T00:43:17;8.97;77.32
78992;DHT22;72820;44.838;37.674;2024-01-16T00:44:18;8.99;77.25
78992;DHT22;72820;44.838;37.674;2024-01-16T00:45:20;8.97;77.28
78992;DHT22;72820;44.838;37.674;2024-01-16T00:46:22;8.96;77.58
78992;DHT22;72820;44.838;37.674;2024-01-16T00:47:24;8.94;77.24
78992;DHT22;72820;44.838;37.674;2024-01-16T00:48:26;8.93;77.59
78992;DHT22;72820;44.838;37.674;2024-01-16T00:49:27;8.91;77.90
78992;DHT22;72820;44.838;37.674;2024-01-16T00:50:30;8.91;77.72
78992;DHT22;72820;44.838;37.674;2024-01-16T00:52:53;8.91;78.07
78992;DHT22;72820;44.838;37.674;2024-01-16T00:55:14;8.88;78.11
78992;DHT22;72820;44.838;37.674;2024-01-16T00:56:37;8.88;78.12
78992;DHT22;72820;44.838;37.674;2024-01-16T00:57:59;8.93;78.34
78992;DHT22;72820;44.838;37.674;2024-01-16T00:59:00;8.91;78.33
78992;DHT22;72820;44.838;37.674;2024-01-16T01:00:03;8.94;78.34
78992;DHT22;72820;44.838;37.674;2024-01-16T01:01:05;8.93;78.31
78992;DHT22;72820;44.838;37.674;2024-01-16T01:02:06;8.90;78.49
78992;DHT22;72820;44.838;37.674;2024-01-16T01:03:11;8.94;78.48
78992;DHT22;72820;44.838;37.674;2024-01-16T01:04:13;8.91;78.55
78992;DHT22;72820;44.838;37.674;2024-01-16T01:05:15;8.94;78.79
78992;DHT22;72820;44.838;37.674;2024-01-16T01:06:18;8.94;78.63
78992;DHT22;72820;44.838;37.674;2024-01-16T01:07:22;8.96;78.62
78992;DHT22;72820;44.838;37.674;2024-01-16T01:08:26;8.96;78.59
78992;DHT22;72820;44.838;37.674;2024-01-16T01:09:28;8.94;78.77
78992;DHT22;72820;44.838;37.674;2024-01-16T01:10:48;8.94;78.92
78992;DHT22;72820;44.838;37.674;2024-01-16T01:11:50;8.93;78.93
78992;DHT22;72820;44.838;37.674;2024-01-16T01:12:52;8.91;78.96
78992;DHT22;72820;44.838;37.674;2024-01-16T01:13:54;8.93;78.93
78992;DHT22;72820;44.838;37.674;2024-01-16T01:14:57;8.94;78.93
78992;DHT22;72820;44.838;37.674;2024-01-16T01:16:17;8.93;79.02
78992;DHT22;72820;44.838;37.674;2024-01-16T01:17:18;8.94;79.05
78992;DHT22;72820;44.838;37.674;2024-01-16T01:18:20;8.93;79.11
78992;DHT22;72820;44.838;37.674;2024-01-16T01:19:22;8.91;79.12
78992;DHT22;72820;44.838;37.674;2024-01-16T01:20:23;8.94;79.06
78992;DHT22;72820;44.838;37.674;2024-01-16T01:21:25;8.94;79.14
78992;DHT22;72820;44.838;37.674;2024-01-16T01:22:26;8.93;79.06
78992;DHT22;72820;44.838;37.674;2024-01-16T01:23:28;8.94;79.19
78992;DHT22;72820;44.838;37.674;2024-01-16T01:24:30;8.88;79.31
78992;DHT22;72820;44.838;37.674;2024-01-16T01:25:31;8.94;79.34
78992;DHT22;72820;44.838;37.674;2024-01-16T01:26:33;8.93;79.30
78992;DHT22;72820;44.838;37.674;2024-01-16T01:27:34;8.94;79.26
78992;DHT22;72820;44.838;37.674;2024-01-16T01:28:36;8.96;79.38
78992;DHT22;72820;44.838;37.674;2024-01-16T01:29:40;8.94;79.33
78992;DHT22;72820;44.838;37.674;2024-01-16T01:30:42;8.99;79.29
78992;DHT22;72820;44.838;37.674;2024-01-16T01:31:46;8.96;79.19
78992;DHT22;72820;44.838;37.674;2024-01-16T01:32:51;8.96;79.34
78992;DHT22;72820;44.838;37.674;2024-01-16T01:33:52;9.01;79.36
78992;DHT22;72820;44.838;37.674;2024-01-16T01:34:54;8.97;79.70
78992;DHT22;72820;44.838;37.674;2024-01-16T01:35:56;8.97;79.43
78992;DHT22;72820;44.838;37.674;2024-01-16T01:36:57;8.97;79.25
78992;DHT22;72820;44.838;37.674;2024-01-16T01:37:59;8.99;79.16
78992;DHT22;72820;44.838;37.674;2024-01-16T01:39:01;9.01;79.04
78992;DHT22;72820;44.838;37.674;2024-01-16T01:40:03;9.04;78.92
78992;DHT22;72820;44.838;37.674;2024-01-16T01:41:04;9.00;78.83
78992;DHT22;72820;44.838;37.674;2024-01-16T01:42:07;9.03;78.79
78992;DHT22;72820;44.838;37.674;2024-01-16T01:43:21;9.01;78.76
78992;DHT22;72820;44.838;37.674;2024-01-16T01:44:23;9.01;78.75
78992;DHT22;72820;44.838;37.674;2024-01-16T01:45:26;9.03;78.85
78992;DHT22;72820;44.838;37.674;2024-01-16T01:46:28;9.04;78.65
78992;DHT22;72820;44.838;37.674;2024-01-16T01:48:50;9.01;78.69
78992;DHT22;72820;44.838;37.674;2024-01-16T01:49:52;9.01;78.89
78992;DHT22;72820;44.838;37.674;2024-01-16T01:51:13;9.04;79.23
78992;DHT22;72820;44.838;37.674;2024-01-16T01:52:16;9.05;78.82
78992;DHT22;72820;44.838;37.674;2024-01-16T01:53:18;9.04;78.89
78992;DHT22;72820;44.838;37.674;2024-01-16T01:54:20;9.07;78.79
78992;DHT22;72820;44.838;37.674;2024-01-16T01:55:24;9.04;78.93
78992;DHT22;72820;44.838;37.674;2024-01-16T01:56:44;9.07;78.96
78992;DHT22;72820;44.838;37.674;2024-01-16T01:57:46;9.04;79.02
78992;DHT22;72820;44.838;37.674;2024-01-16T01:58:51;9.04;79.13
78992;DHT22;72820;44.838;37.674;2024-01-16T01:59:55;9.08;79.00
78992;DHT22;72820;44.838;37.674;2024-01-16T02:01:01;9.12;79.10
78992;DHT22;72820;44.838;37.674;2024-01-16T02:02:04;9.08;78.95
78992;DHT22;72820;44.838;37.674;2024-01-16T02:03:06;9.10;78.90
78992;DHT22;72820;44.838;37.674;2024-01-16T02:04:08;9.11;78.95
78992;DHT22;72820;44.838;37.674;2024-01-16T02:05:10;9.10;78.69
78992;DHT22;72820;44.838;37.674;2024-01-16T02:06:31;9.14;78.60
78992;DHT22;72820;44.838;37.674;2024-01-16T02:07:33;9.11;78.84
78992;DHT22;72820;44.838;37.674;2024-01-16T02:08:36;9.11;78.70
78992;DHT22;72820;44.838;37.674;2024-01-16T02:09:39;9.14;78.91
78992;DHT22;72820;44.838;37.674;2024-01-16T02:10:42;9.15;78.87
78992;DHT22;72820;44.838;37.674;2024-01-16T02:11:47;9.17;78.95
78992;DHT22;72820;44.838;37.674;2024-01-16T02:12:48;9.18;79.01
78992;DHT22;72820;44.838;37.674;2024-01-16T02:13:50;9.20;79.06
78992;DHT22;72820;44.838;37.674;2024-01-16T02:14:52;9.20;78.99
78992;DHT22;72820;44.838;37.674;2024-01-16T02:15:54;9.20;79.11
78992;DHT22;72820;44.838;37.674;2024-01-16T02:16:55;9.18;79.05
78992;DHT22;72820;44.838;37.674;2024-01-16T02:17:57;9.17;78.98
78992;DHT22;72820;44.838;37.674;2024-01-16T02:18:59;9.17;79.08
78992;DHT22;72820;44.838;37.674;2024-01-16T02:20:00;9.20;79.04
78992;DHT22;72820;44.838;37.674;2024-01-16T02:21:04;9.20;79.05
78992;DHT22;72820;44.838;37.674;2024-01-16T02:22:09;9.18;79.13
78992;DHT22;72820;44.838;37.674;2024-01-16T02:23:14;9.20;79.04
78992;DHT22;72820;44.838;37.674;2024-01-16T02:24:18;9.25;79.05
78992;DHT22;72820;44.838;37.674;2024-01-16T02:25:20;9.27;78.92
78992;DHT22;72820;44.838;37.674;2024-01-16T02:26:22;9.25;78.92
78992;DHT22;72820;44.838;37.674;2024-01-16T02:28:43;9.27;79.01
78992;DHT22;72820;44.838;37.674;2024-01-16T02:29:45;9.29;79.20
78992;DHT22;72820;44.838;37.674;2024-01-16T02:30:47;9.31;79.50
78992;DHT22;72820;44.838;37.674;2024-01-16T02:31:49;9.32;79.82
78992;DHT22;72820;44.838;37.674;2024-01-16T02:32:50;9.31;79.40
78992;DHT22;72820;44.838;37.674;2024-01-16T02:33:52;9.34;79.53
78992;DHT22;72820;44.838;37.674;2024-01-16T02:34:54;9.32;79.66
78992;DHT22;72820;44.838;37.674;2024-01-16T02:35:55;9.32;79.85
78992;DHT22;72820;44.838;37.674;2024-01-16T02:36:57;9.31;80.18
78992;DHT22;72820;44.838;37.674;2024-01-16T02:37:58;9.35;79.85
78992;DHT22;72820;44.838;37.674;2024-01-16T02:39:01;9.35;79.88
78992;DHT22;72820;44.838;37.674;2024-01-16T02:40:03;9.31;80.02
78992;DHT22;72820;44.838;37.674;2024-01-16T02:41:07;9.35;80.41
78992;DHT22;72820;44.838;37.674;2024-01-16T02:42:08;9.38;80.23
78992;DHT22;72820;44.838;37.674;2024-01-16T02:43:10;9.38;80.18
78992;DHT22;72820;44.838;37.674;2024-01-16T02:44:11;9.36;80.40
78992;DHT22;72820;44.838;37.674;2024-01-16T02:45:13;9.36;80.48
78992;DHT22;72820;44.838;37.674;2024-01-16T02:46:15;9.39;80.40
78992;DHT22;72820;44.838;37.674;2024-01-16T02:47:16;9.39;80.42
78992;DHT22;72820;44.838;37.674;2024-01-16T02:48:17;9.39;80.58
78992;DHT22;72820;44.838;37.674;2024-01-16T02:49:19;9.38;80.37
78992;DHT22;72820;44.838;37.674;2024-01-16T02:50:21;9.38;80.56
78992;DHT22;72820;44.838;37.674;2024-01-16T02:51:22;9.36;80.91
78992;DHT22;72820;44.838;37.674;2024-01-16T02:52:24;9.38;81.13
78992;DHT22;72820;44.838;37.674;2024-01-16T02:53:25;9.40;80.95
78992;DHT22;72820;44.838;37.674;2024-01-16T02:54:26;9.38;80.92
78992;DHT22;72820;44.838;37.674;2024-01-16T02:55:28;9.36;81.01
78992;DHT22;72820;44.838;37.674;2024-01-16T02:57:49;9.34;81.19
78992;DHT22;72820;44.838;37.674;2024-01-16T02:58:51;9.36;81.13
78992;DHT22;72820;44.838;37.674;2024-01-16T02:59:52;9.32;81.15
78992;DHT22;72820;44.838;37.674;2024-01-16T03:00:54;9.32;81.44
78992;DHT22;72820;44.838;37.674;2024-01-16T03:01:55;9.36;81.38
78992;DHT22;72820;44.838;37.674;2024-01-16T03:02:57;9.35;81.22
78992;DHT22;72820;44.838;37.674;2024-01-16T03:03:58;9.34;81.14
78992;DHT22;72820;44.838;37.674;2024-01-16T03:05:02;9.34;81.09
78992;DHT22;72820;44.838;37.674;2024-01-16T03:06:07;9.32;81.19
78992;DHT22;72820;44.838;37.674;2024-01-16T03:07:09;9.35;81.32
78992;DHT22;72820;44.838;37.674;2024-01-16T03:08:10;9.31;81.08
78992;DHT22;72820;44.838;37.674;2024-01-16T03:09:12;9.31;81.32
78992;DHT22;72820;44.838;37.674;2024-01-16T03:10:32;9.34;81.13
78992;DHT22;72820;44.838;37.674;2024-01-16T03:11:33;9.34;81.03
78992;DHT22;72820;44.838;37.674;2024-01-16T03:12:34;9.35;81.27
78992;DHT22;72820;44.838;37.674;2024-01-16T03:13:36;9.34;81.10
78992;DHT22;72820;44.838;37.674;2024-01-16T03:14:37;9.32;81.33
78992;DHT22;72820;44.838;37.674;2024-01-16T03:15:40;9.32;81.07
78992;DHT22;72820;44.838;37.674;2024-01-16T03:16:42;9.32;81.03
78992;DHT22;72820;44.838;37.674;2024-01-16T03:17:43;9.31;81.04
78992;DHT22;72820;44.838;37.674;2024-01-16T03:20:05;9.31;81.20
78992;DHT22;72820;44.838;37.674;2024-01-16T03:22:28;9.34;80.95
78992;DHT22;72820;44.838;37.674;2024-01-16T03:23:48;9.32;81.11
78992;DHT22;72820;44.838;37.674;2024-01-16T03:24:49;9.36;80.88
78992;DHT22;72820;44.838;37.674;2024-01-16T03:25:51;9.34;81.17
78992;DHT22;72820;44.838;37.674;2024-01-16T03:26:53;9.31;80.92
78992;DHT22;72820;44.838;37.674;2024-01-16T03:27:54;9.34;81.04
78992;DHT22;72820;44.838;37.674;2024-01-16T03:28:56;9.28;81.01
78992;DHT22;72820;44.838;37.674;2024-01-16T03:29:57;9.32;81.13
78992;DHT22;72820;44.838;37.674;2024-01-16T03:30:59;9.29;80.91
78992;DHT22;72820;44.838;37.674;2024-01-16T03:32:00;9.29;80.81
78992;DHT22;72820;44.838;37.674;2024-01-16T03:33:02;9.32;80.78
78992;DHT22;72820;44.838;37.674;2024-01-16T03:34:04;9.34;80.68
78992;DHT22;72820;44.838;37.674;2024-01-16T03:35:06;9.32;80.67
78992;DHT22;72820;44.838;37.674;2024-01-16T03:36:09;9.34;80.78
78992;DHT22;72820;44.838;37.674;2024-01-16T03:37:10;9.34;80.88
78992;DHT22;72820;44.838;37.674;2024-01-16T03:38:12;9.34;80.89
78992;DHT22;72820;44.838;37.674;2024-01-16T03:39:13;9.35;80.76
78992;DHT22;72820;44.838;37.674;2024-01-16T03:40:15;9.35;80.87
78992;DHT22;72820;44.838;37.674;2024-01-16T03:41:16;9.38;80.93
78992;DHT22;72820;44.838;37.674;2024-01-16T03:42:18;9.38;80.63
78992;DHT22;72820;44.838;37.674;2024-01-16T03:43:19;9.39;80.66
78992;DHT22;72820;44.838;37.674;2024-01-16T03:44:21;9.39;80.51
78992;DHT22;72820;44.838;37.674;2024-01-16T03:45:22;9.40;80.35
78992;DHT22;72820;44.838;37.674;2024-01-16T03:46:24;9.40;80.47
78992;DHT22;72820;44.838;37.674;2024-01-16T03:47:25;9.42;80.14
78992;DHT22;72820;44.838;37.674;2024-01-16T03:48:26;9.40;80.28
78992;DHT22;72820;44.838;37.674;2024-01-16T03:49:28;9.42;80.19
78992;DHT22;72820;44.838;37.674;2024-01-16T03:50:29;9.40;80.14
78992;DHT22;72820;44.838;37.674;2024-01-16T03:51:32;9.42;80.13
78992;DHT22;72820;44.838;37.674;2024-01-16T03:52:33;9.42;80.07
78992;DHT22;72820;44.838;37.674;2024-01-16T03:53:35;9.40;79.91
78992;DHT22;72820;44.838;37.674;2024-01-16T03:54:36;9.40;79.97
78992;DHT22;72820;44.838;37.674;2024-01-16T03:55:37;9.39;79.87
78992;DHT22;72820;44.838;37.674;2024-01-16T03:56:39;9.39;79.82
78992;DHT22;72820;44.838;37.674;2024-01-16T03:57:41;9.40;79.92
78992;DHT22;72820;44.838;37.674;2024-01-16T03:58:43;9.40;80.34
78992;DHT22;72820;44.838;37.674;2024-01-16T04:00:03;9.45;80.13
78992;DHT22;72820;44.838;37.674;2024-01-16T04:01:06;9.48;80.22
78992;DHT22;72820;44.838;37.674;2024-01-16T04:02:08;9.43;80.24
78992;DHT22;72820;44.838;37.674;2024-01-16T04:03:09;9.48;80.58
78992;DHT22;72820;44.838;37.674;2024-01-16T04:04:11;9.48;80.55
78992;DHT22;72820;44.838;37.674;2024-01-16T04:05:12;9.52;80.48
78992;DHT22;72820;44.838;37.674;2024-01-16T04:06:17;9.52;80.75
78992;DHT22;72820;44.838;37.674;2024-01-16T04:07:19;9.52;80.52
78992;DHT22;72820;44.838;37.674;2024-01-16T04:08:20;9.53;80.44
78992;DHT22;72820;44.838;37.674;2024-01-16T04:09:22;9.55;80.21
78992;DHT22;72820;44.838;37.674;2024-01-16T04:10:23;9.50;80.23
78992;DHT22;72820;44.838;37.674;2024-01-16T04:11:24;9.49;80.17
78992;DHT22;72820;44.838;37.674;2024-01-16T04:12:26;9.50;80.13
78992;DHT22;72820;44.838;37.674;2024-01-16T04:13:27;9.52;79.97
78992;DHT22;72820;44.838;37.674;2024-01-16T04:14:29;9.49;79.91
78992;DHT22;72820;44.838;37.674;2024-01-16T04:15:30;9.50;79.94
78992;DHT22;72820;44.838;37.674;2024-01-16T04:16:31;9.50;79.85
78992;DHT22;72820;44.838;37.674;2024-01-16T04:17:33;9.50;79.96
78992;DHT22;72820;44.838;37.674;2024-01-16T04:18:39;9.50;79.74
78992;DHT22;72820;44.838;37.674;2024-01-16T04:19:45;9.49;79.65
78992;DHT22;72820;44.838;37.674;2024-01-16T04:20:46;9.52;79.46
78992;DHT22;72820;44.838;37.674;2024-01-16T04:21:48;9.53;79.52
78992;DHT22;72820;44.838;37.674;2024-01-16T04:22:49;9.58;79.50
78992;DHT22;72820;44.838;37.674;2024-01-16T04:23:51;9.59;79.36
78992;DHT22;72820;44.838;37.674;2024-01-16T04:24:53;9.60;79.30
78992;DHT22;72820;44.838;37.674;2024-01-16T04:25:55;9.56;79.38
78992;DHT22;72820;44.838;37.674;2024-01-16T04:26:56;9.60;79.57
78992;DHT22;72820;44.838;37.674;2024-01-16T04:28:35;9.62;79.06
78992;DHT22;72820;44.838;37.674;2024-01-16T04:30:58;9.59;78.92
78992;DHT22;72820;44.838;37.674;2024-01-16T04:31:59;9.60;79.29
78992;DHT22;72820;44.838;37.674;2024-01-16T04:33:01;9.60;78.67
78992;DHT22;72820;44.838;37.674;2024-01-16T04:34:02;9.60;78.41
78992;DHT22;72820;44.838;37.674;2024-01-16T04:35:04;9.60;78.46
78992;DHT22;72820;44.838;37.674;2024-01-16T04:36:06;9.60;78.41
78992;DHT22;72820;44.838;37.674;2024-01-16T04:37:08;9.60;78.41
78992;DHT22;72820;44.838;37.674;2024-01-16T04:38:09;9.60;78.40
78992;DHT22;72820;44.838;37.674;2024-01-16T04:39:11;9.59;78.45
78992;DHT22;72820;44.838;37.674;2024-01-16T04:40:13;9.60;78.55
78992;DHT22;72820;44.838;37.674;2024-01-16T04:42:37;9.62;78.45
78992;DHT22;72820;44.838;37.674;2024-01-16T04:43:39;9.62;78.28
78992;DHT22;72820;44.838;37.674;2024-01-16T04:44:41;9.62;78.28
78992;DHT22;72820;44.838;37.674;2024-01-16T04:45:42;9.62;78.19
78992;DHT22;72820;44.838;37.674;2024-01-16T04:46:44;9.63;77.85
78992;DHT22;72820;44.838;37.674;2024-01-16T04:47:45;9.63;77.58
78992;DHT22;72820;44.838;37.674;2024-01-16T04:48:47;9.66;77.63
78992;DHT22;72820;44.838;37.674;2024-01-16T04:49:48;9.63;77.76
78992;DHT22;72820;44.838;37.674;2024-01-16T04:50:50;9.63;77.61
78992;DHT22;72820;44.838;37.674;2024-01-16T04:51:51;9.65;77.56
78992;DHT22;72820;44.838;37.674;2024-01-16T04:52:53;9.63;77.69
78992;DHT22;72820;44.838;37.674;2024-01-16T04:53:55;9.65;77.75
78992;DHT22;72820;44.838;37.674;2024-01-16T04:54:56;9.63;77.96
78992;DHT22;72820;44.838;37.674;2024-01-16T04:56:16;9.69;77.64
78992;DHT22;72820;44.838;37.674;2024-01-16T04:57:18;9.67;77.44
78992;DHT22;72820;44.838;37.674;2024-01-16T04:58:19;9.69;77.32
78992;DHT22;72820;44.838;37.674;2024-01-16T04:59:40;9.65;77.31
78992;DHT22;72820;44.838;37.674;2024-01-16T05:00:41;9.63;77.37
78992;DHT22;72820;44.838;37.674;2024-01-16T05:01:42;9.65;77.54
78992;DHT22;72820;44.838;37.674;2024-01-16T05:02:44;9.67;78.03
78992;DHT22;72820;44.838;37.674;2024-01-16T05:04:04;9.66;77.59
78992;DHT22;72820;44.838;37.674;2024-01-16T05:05:06;9.63;77.66
78992;DHT22;72820;44.838;37.674;2024-01-16T05:06:14;9.63;77.56
78992;DHT22;72820;44.838;37.674;2024-01-16T05:07:16;9.66;77.72
78992;DHT22;72820;44.838;37.674;2024-01-16T05:08:18;9.67;77.70
78992;DHT22;72820;44.838;37.674;2024-01-16T05:09:19;9.67;77.60
78992;DHT22;72820;44.838;37.674;2024-01-16T05:10:20;9.67;77.67
78992;DHT22;72820;44.838;37.674;2024-01-16T05:11:22;9.69;77.87
78992;DHT22;72820;44.838;37.674;2024-01-16T05:12:23;9.86;77.66
78992;DHT22;72820;44.838;37.674;2024-01-16T05:13:25;10.00;78.07
78992;DHT22;72820;44.838;37.674;2024-01-16T05:14:26;10.04;76.72
78992;DHT22;72820;44.838;37.674;2024-01-16T05:15:27;9.97;76.71
78992;DHT22;72820;44.838;37.674;2024-01-16T05:16:29;9.90;77.04
78992;DHT22;72820;44.838;37.674;2024-01-16T05:17:30;9.91;77.17
78992;DHT22;72820;44.838;37.674;2024-01-16T05:18:32;9.86;77.17
78992;DHT22;72820;44.838;37.674;2024-01-16T05:19:55;9.86;77.37
78992;DHT22;72820;44.838;37.674;2024-01-16T05:20:57;9.84;77.59
78992;DHT22;72820;44.838;37.674;2024-01-16T05:21:58;9.83;77.87
78992;DHT22;72820;44.838;37.674;2024-01-16T05:22:59;9.86;77.77
78992;DHT22;72820;44.838;37.674;2024-01-16T05:24:02;9.84;77.87
78992;DHT22;72820;44.838;37.674;2024-01-16T05:25:03;9.86;77.87
78992;DHT22;72820;44.838;37.674;2024-01-16T05:26:05;9.84;77.95
78992;DHT22;72820;44.838;37.674;2024-01-16T05:27:06;9.84;78.02
78992;DHT22;72820;44.838;37.674;2024-01-16T05:28:10;9.83;78.20
78992;DHT22;72820;44.838;37.674;2024-01-16T05:29:11;9.86;78.05
78992;DHT22;72820;44.838;37.674;2024-01-16T05:30:13;9.87;78.13
78992;DHT22;72820;44.838;37.674;2024-01-16T05:31:14;9.86;78.34
78992;DHT22;72820;44.838;37.674;2024-01-16T05:32:16;9.89;78.17
78992;DHT22;72820;44.838;37.674;2024-01-16T05:33:17;9.90;78.05
78992;DHT22;72820;44.838;37.674;2024-01-16T05:34:19;9.89;78.19
78992;DHT22;72820;44.838;37.674;2024-01-16T05:35:20;9.90;78.28
78992;DHT22;72820;44.838;37.674;2024-01-16T05:36:22;9.90;78.26
78992;DHT22;72820;44.838;37.674;2024-01-16T05:37:23;9.91;78.21
78992;DHT22;72820;44.838;37.674;2024-01-16T05:38:25;9.91;78.32
78992;DHT22;72820;44.838;37.674;2024-01-16T05:39:26;9.91;78.34
78992;DHT22;72820;44.838;37.674;2024-01-16T05:40:28;9.91;78.29
78992;DHT22;72820;44.838;37.674;2024-01-16T05:41:35;9.93;78.28
78992;DHT22;72820;44.838;37.674;2024-01-16T05:42:38;9.93;78.10
78992;DHT22;72820;44.838;37.674;2024-01-16T05:43:58;9.95;78.14
78992;DHT22;72820;44.838;37.674;2024-01-16T05:44:59;9.95;78.50
78992;DHT22;72820;44.838;37.674;2024-01-16T05:46:01;10.00;78.07
78992;DHT22;72820;44.838;37.674;2024-01-16T05:47:21;10.00;78.13
78992;DHT22;72820;44.838;37.674;2024-01-16T05:48:25;10.03;78.28
78992;DHT22;72820;44.838;37.674;2024-01-16T05:49:26;10.01;78.22
78992;DHT22;72820;44.838;37.674;2024-01-16T05:50:29;10.04;78.23
78992;DHT22;72820;44.838;37.674;2024-01-16T05:51:48;10.04;78.61
78992;DHT22;72820;44.838;37.674;2024-01-16T05:52:50;10.04;78.20
78992;DHT22;72820;44.838;37.674;2024-01-16T05:53:52;10.07;78.42
78992;DHT22;72820;44.838;37.674;2024-01-16T05:54:53;10.07;77.97
78992;DHT22;72820;44.838;37.674;2024-01-16T05:55:58;10.11;78.31
78992;DHT22;72820;44.838;37.674;2024-01-16T05:56:59;10.15;78.00
78992;DHT22;72820;44.838;37.674;2024-01-16T05:58:01;10.17;78.54
78992;DHT22;72820;44.838;37.674;2024-01-16T05:59:02;10.20;78.09
78992;DHT22;72820;44.838;37.674;2024-01-16T06:00:04;10.25;78.12
78992;DHT22;72820;44.838;37.674;2024-01-16T06:01:08;10.21;77.92
78992;DHT22;72820;44.838;37.674;2024-01-16T06:02:09;10.22;78.00
78992;DHT22;72820;44.838;37.674;2024-01-16T06:03:11;10.20;78.05
78992;DHT22;72820;44.838;37.674;2024-01-16T06:04:13;10.20;77.96
78992;DHT22;72820;44.838;37.674;2024-01-16T06:05:14;10.21;78.02
78992;DHT22;72820;44.838;37.674;2024-01-16T06:06:16;10.22;77.99
78992;DHT22;72820;44.838;37.674;2024-01-16T06:07:17;10.20;77.98
78992;DHT22;72820;44.838;37.674;2024-01-16T06:08:19;10.22;77.97
78992;DHT22;72820;44.838;37.674;2024-01-16T06:09:21;10.20;78.14
78992;DHT22;72820;44.838;37.674;2024-01-16T06:10:22;10.21;78.04
78992;DHT22;72820;44.838;37.674;2024-01-16T06:11:33;10.22;78.35
78992;DHT22;72820;44.838;37.674;2024-01-16T06:12:35;10.25;78.42
78992;DHT22;72820;44.838;37.674;2024-01-16T06:13:37;10.27;78.14
78992;DHT22;72820;44.838;37.674;2024-01-16T06:14:38;10.27;78.09
78992;DHT22;72820;44.838;37.674;2024-01-16T06:15:40;10.28;78.07
78992;DHT22;72820;44.838;37.674;2024-01-16T06:16:41;10.28;78.24
78992;DHT22;72820;44.838;37.674;2024-01-16T06:17:43;10.29;78.08
78992;DHT22;72820;44.838;37.674;2024-01-16T06:18:44;10.32;78.12
78992;DHT22;72820;44.838;37.674;2024-01-16T06:19:46;10.34;78.20
78992;DHT22;72820;44.838;37.674;2024-01-16T06:20:48;10.32;78.07
78992;DHT22;72820;44.838;37.674;2024-01-16T06:21:49;10.32;78.18
78992;DHT22;72820;44.838;37.674;2024-01-16T06:22:51;10.32;78.14
78992;DHT22;72820;44.838;37.674;2024-01-16T06:25:14;10.35;78.07
78992;DHT22;72820;44.838;37.674;2024-01-16T06:26:15;10.38;77.99
78992;DHT22;72820;44.838;37.674;2024-01-16T06:27:17;10.39;78.04
78992;DHT22;72820;44.838;37.674;2024-01-16T06:28:38;10.45;78.14
78992;DHT22;72820;44.838;37.674;2024-01-16T06:29:41;10.45;78.07
78992;DHT22;72820;44.838;37.674;2024-01-16T06:30:43;10.45;78.03
78992;DHT22;72820;44.838;37.674;2024-01-16T06:31:44;10.45;77.96
78992;DHT22;72820;44.838;37.674;2024-01-16T06:32:46;10.45;77.99
78992;DHT22;72820;44.838;37.674;2024-01-16T06:33:48;10.46;78.10
78992;DHT22;72820;44.838;37.674;2024-01-16T06:34:50;10.48;78.08
78992;DHT22;72820;44.838;37.674;2024-01-16T06:35:53;10.50;78.12
78992;DHT22;72820;44.838;37.674;2024-01-16T06:36:55;10.50;78.10
78992;DHT22;72820;44.838;37.674;2024-01-16T06:37:57;10.46;78.34
78992;DHT22;72820;44.838;37.674;2024-01-16T06:40:37;10.56;78.50
78992;DHT22;72820;44.838;37.674;2024-01-16T06:41:41;10.57;78.20
78992;DHT22;72820;44.838;37.674;2024-01-16T06:42:42;10.57;78.21
78992;DHT22;72820;44.838;37.674;2024-01-16T06:43:43;10.57;78.34
78992;DHT22;72820;44.838;37.674;2024-01-16T06:44:45;10.60;78.34
78992;DHT22;72820;44.838;37.674;2024-01-16T06:45:46;10.62;78.38
78992;DHT22;72820;44.838;37.674;2024-01-16T06:46:48;10.63;78.29
78992;DHT22;72820;44.838;37.674;2024-01-16T06:47:49;10.65;78.33
78992;DHT22;72820;44.838;37.674;2024-01-16T06:48:51;10.65;78.29
78992;DHT22;72820;44.838;37.674;2024-01-16T06:49:52;10.69;78.37
78992;DHT22;72820;44.838;37.674;2024-01-16T06:51:12;10.70;78.05
78992;DHT22;72820;44.838;37.674;2024-01-16T06:52:15;10.72;78.04